Terminal Aerodrome Forecast
Issued by NWS

Home | Current Version | Previous Version | Text Only | Print | Product List | Glossary On
Versions: 1 2 3 4 5 6 7 8 9 10 11 12 13 14 15
000
FTUS44 KLIX 302300
TAFMCB
TAF
KMCB 302336Z 0100/0124 00000KT P6SM FEW050
     FM011100 00000KT P6SM BKN050
     FM011800 16006KT P6SM VCSH BKN040=

USA.gov is the U.S. government's official web portal to all federal, state and local government web resources and services.